Airfield :
LOGIN :

Register | Disclaimer

   EN    FR    IT 

 










Legend :    VFR   Marginal VFR   IFR   Intensive IFR   Very Intensive IFR
Visi :
Ceiling :
>= 8 km
>= 3000ft
5 to 8 km
1000 to 3000 ft
1500m to 5 km
500 to 1000 ft
800 to 1500m
200 to 500 ft
< 800m
< 200 ft
Symbols :   Thunderstorms  Fog  Heavy snow  Heavy precipitations  Wind > 20 kt
SIGMETs :     Misc.  Thunderstorms  Icing  Turbulence  Mountain Waves  Volcanic Ashes






- Airport Elevation : 170 ft
- IATA code : BGO


ENBR - Bergen , Flesland

CURRENT METAR :
  • 152250Z 13013KT 9999 DZ FEW008 SCT015CB BKN023 03/02 Q0985 RMK WIND 1200FT 13025KT

EXPIRED METARs :
  • 152220Z 13011KT 9999 DZ FEW005 SCT015CB BKN020 03/02 Q0985 RMK WIND 1200FT 13024KT
  • 152150Z 13012KT 9999 SHRA FEW006 SCT010 BKN022 03/02 Q0986 RMK WIND 1200FT 13025KT
  • 152120Z 14010KT 9999 -SHRA FEW005 SCT015 BKN020 03/02 Q0985 RMK WIND 1200FT 13025KT
  • 152050Z 13010KT 9999 FEW009 BKN024 03/02 Q0985 RESHRA RMK WIND 1200FT 13019KT
  • 152020Z 13010KT 9999 FEW009 BKN020 03/02 Q0985 RMK WIND 1200FT 14020KT

TAF TAF ENBR
Valid from the 15 at 18:00 until the 16 at 18:00 UTC


1518/1618 16012KT 9999 -SHRA FEW008 BKN025
TEMPO 1518/1606 4000 SHRASN BKN014 SCT018CB
BECMG 1600/1603 24015G25KT
BECMG 1609/1612 16008KT
TEMPO 1615/1618 17018KT 4000 SHRASN BKN012 SCT018CB



MET'MAP, your aeronautical weather chart ! - Copyright ORBIFLY December 2007 - Disclaimer

ORBIFLY MET'MAP TEAM :

Programming & Development : Alexandra Zaïnal
Concept & original design : Baudouin d'Aumeries
Assistance for programming : Marc-Olivier Méhu
Technical & hardware support : Manuel Goepfert

Contact : metmap@orbifly.com




SOURCES & CREDITS :

   NOAA